Time;durP1;ratioP1;P1;durP2;ratioP2;P2;SDS_P1;SDS_P2;PMS_P1;PMS_P2;Temp;Humidity;BMP_temperature;BMP_pressure;BME280_temperature;BME280_humidity;BME280_pressure;Samples;Min_cycle;Max_cycle;Signal;HPM_P1;HPM_P2
2023/12/21 00:00:23;;;;;;;0.00;0.00;;;12.10;80.90;;;;;;4800297;29;20213;-21
2023/12/21 00:02:50;;;;;;;0.00;0.00;;;12.10;80.80;;;;;;4783217;29;20221;-22
2023/12/21 00:05:20;;;;;;;0.00;0.00;;;12.10;80.90;;;;;;4797165;29;20625;-21
2023/12/21 00:07:53;;;;;;;0.00;0.00;;;12.10;80.90;;;;;;4799198;29;20286;-21
2023/12/21 00:10:20;;;;;;;0.00;0.00;;;12.10;80.80;;;;;;4799049;29;20667;-21
2023/12/21 00:12:47;;;;;;;0.00;0.00;;;12.10;80.90;;;;;;4796849;29;20999;-21
2023/12/21 00:15:15;;;;;;;0.00;0.00;;;12.10;80.90;;;;;;4798321;29;20221;-22
2023/12/21 00:17:44;;;;;;;0.00;0.00;;;12.10;80.90;;;;;;4800916;29;20221;-21
2023/12/21 00:20:16;;;;;;;0.00;0.00;;;12.10;80.90;;;;;;4797398;29;20827;-21
2023/12/21 00:22:43;;;;;;;0.00;0.00;;;12.10;80.90;;;;;;4798757;29;20300;-21
2023/12/21 00:25:10;;;;;;;0.00;0.00;;;12.10;80.90;;;;;;4798844;29;20236;-21
2023/12/21 00:27:40;;;;;;;0.00;0.00;;;12.10;80.90;;;;;;4793964;29;20241;-21
2023/12/21 00:30:08;;;;;;;0.00;0.00;;;12.10;80.90;;;;;;4797822;29;20213;-21
2023/12/21 00:32:38;;;;;;;0.00;0.00;;;12.10;80.90;;;;;;4799157;29;20308;-21
2023/12/21 00:35:05;;;;;;;0.00;0.00;;;12.10;80.90;;;;;;4768107;29;20272;-21
2023/12/21 00:37:36;;;;;;;0.00;0.00;;;12.10;80.90;;;;;;4787896;29;20243;-21
2023/12/21 00:40:05;;;;;;;0.00;0.00;;;12.10;80.90;;;;;;4780274;30;20237;-21
2023/12/21 00:42:36;;;;;;;0.00;0.00;;;12.10;80.90;;;;;;4778849;30;20701;-21
2023/12/21 00:45:07;;;;;;;0.00;0.00;;;12.10;81.00;;;;;;4778082;30;20273;-21
2023/12/21 00:47:35;;;;;;;0.00;0.00;;;12.10;81.00;;;;;;4785283;29;20658;-22
2023/12/21 00:50:06;;;;;;;0.00;0.00;;;12.10;81.00;;;;;;4798054;29;20217;-22
2023/12/21 00:52:33;;;;;;;0.00;0.00;;;12.10;81.00;;;;;;4767532;29;20615;-22
2023/12/21 00:55:03;;;;;;;0.00;0.00;;;12.10;81.10;;;;;;4797093;29;20213;-21
2023/12/21 00:57:36;;;;;;;0.00;0.00;;;12.10;81.00;;;;;;4795426;29;20212;-21
2023/12/21 01:00:12;;;;;;;0.00;0.00;;;12.10;81.00;;;;;;4787195;29;20751;-21
2023/12/21 01:02:41;;;;;;;0.00;0.00;;;12.10;81.00;;;;;;4778916;30;20789;-21
2023/12/21 01:05:09;;;;;;;0.00;0.00;;;12.10;81.00;;;;;;4778913;30;20578;-42
2023/12/21 01:07:38;;;;;;;0.00;0.00;;;12.10;81.10;;;;;;4780405;29;20220;-40
2023/12/21 01:10:06;;;;;;;0.00;0.00;;;12.10;81.10;;;;;;4796120;29;20228;-42
2023/12/21 01:12:34;;;;;;;0.00;0.00;;;12.20;81.00;;;;;;4800694;29;20220;-43
2023/12/21 01:15:02;;;;;;;0.00;0.00;;;12.20;81.00;;;;;;4797994;29;20224;-43
2023/12/21 01:17:29;;;;;;;0.00;0.00;;;12.20;80.90;;;;;;4796590;29;20215;-38
2023/12/21 01:19:59;;;;;;;0.00;0.00;;;12.20;80.80;;;;;;4793880;29;20251;-44
2023/12/21 01:22:26;;;;;;;0.00;0.00;;;12.20;80.90;;;;;;4796825;29;20212;-41
2023/12/21 01:24:53;;;;;;;0.00;0.00;;;12.10;80.80;;;;;;4797787;29;20211;-43
2023/12/21 01:27:25;;;;;;;0.00;0.00;;;12.20;80.90;;;;;;4797710;29;20209;-42
2023/12/21 01:30:01;;;;;;;0.00;0.00;;;12.10;80.90;;;;;;4795343;29;20252;-41
2023/12/21 01:32:31;;;;;;;0.00;0.00;;;12.10;81.60;;;;;;4782474;29;20209;-42
2023/12/21 01:35:03;;;;;;;0.00;0.00;;;12.10;80.90;;;;;;4797628;29;20297;-40
2023/12/21 01:37:31;;;;;;;0.00;0.00;;;12.10;80.90;;;;;;4782845;29;20241;-40
2023/12/21 01:39:58;;;;;;;0.00;0.00;;;12.20;81.00;;;;;;4796936;29;20225;-42
2023/12/21 01:42:25;;;;;;;0.00;0.00;;;12.10;81.00;;;;;;4798600;29;20261;-40
2023/12/21 01:44:55;;;;;;;0.00;0.00;;;12.10;80.90;;;;;;4798006;29;20197;-41
2023/12/21 01:47:22;;;;;;;0.00;0.00;;;12.20;80.90;;;;;;4800113;29;20221;-40
2023/12/21 01:49:55;;;;;;;0.00;0.00;;;12.10;80.90;;;;;;4798393;29;20213;-40
2023/12/21 01:52:30;;;;;;;0.00;0.00;;;12.10;80.90;;;;;;4791039;29;20381;-43
2023/12/21 01:55:01;;;;;;;0.00;0.00;;;12.20;81.00;;;;;;4797443;29;20221;-38
2023/12/21 01:57:28;;;;;;;0.00;0.00;;;12.10;81.00;;;;;;4782132;29;20213;-39
2023/12/21 01:59:55;;;;;;;0.00;0.00;;;12.20;81.00;;;;;;4795828;29;20241;-41
2023/12/21 02:02:25;;;;;;;0.00;0.00;;;12.10;81.00;;;;;;4796493;29;20197;-39
2023/12/21 02:04:53;;;;;;;0.00;0.00;;;12.10;80.90;;;;;;4796026;29;20229;-42
2023/12/21 02:07:23;;;;;;;0.00;0.00;;;12.10;80.90;;;;;;4796395;29;20222;-42
2023/12/21 02:09:55;;;;;;;0.00;0.00;;;12.10;81.00;;;;;;4798475;29;20639;-43
2023/12/21 02:12:25;;;;;;;0.00;0.00;;;12.10;81.00;;;;;;4799939;29;20225;-43
2023/12/21 02:14:52;;;;;;;0.00;0.00;;;12.10;81.00;;;;;;4802192;29;20220;-43
2023/12/21 02:17:24;;;;;;;0.00;0.00;;;12.10;81.00;;;;;;4800810;29;20216;-36
2023/12/21 02:19:54;;;;;;;0.00;0.00;;;12.10;81.00;;;;;;4798280;29;20224;-38
2023/12/21 02:22:24;;;;;;;0.00;0.00;;;12.10;81.00;;;;;;4792703;29;20198;-40
2023/12/21 02:24:54;;;;;;;0.00;0.00;;;12.10;81.00;;;;;;4794964;29;20588;-37
2023/12/21 02:27:21;;;;;;;0.00;0.00;;;12.20;81.00;;;;;;4800543;29;20211;-41
2023/12/21 02:29:50;;;;;;;0.00;0.00;;;12.20;81.10;;;;;;4797001;29;20217;-39
2023/12/21 02:32:23;;;;;;;0.00;0.00;;;12.20;81.00;;;;;;4783049;29;20657;-40
2023/12/21 02:34:55;;;;;;;0.00;0.00;;;12.20;81.10;;;;;;4798831;29;20217;-41
2023/12/21 02:37:25;;;;;;;0.00;0.00;;;12.20;81.10;;;;;;4800366;29;20309;-41
2023/12/21 02:39:52;;;;;;;0.00;0.00;;;12.20;81.10;;;;;;4798730;29;20243;-41
2023/12/21 02:42:19;;;;;;;0.00;0.00;;;12.20;81.10;;;;;;4800000;29;20221;-42
2023/12/21 02:44:48;;;;;;;0.00;0.00;;;12.20;81.20;;;;;;4797621;29;20262;-42
2023/12/21 02:47:16;;;;;;;0.00;0.00;;;12.20;81.20;;;;;;4800851;29;20205;-42
2023/12/21 02:49:45;;;;;;;0.00;0.00;;;12.20;81.10;;;;;;4800173;29;20233;-35
2023/12/21 02:52:14;;;;;;;0.00;0.00;;;12.20;81.10;;;;;;4798918;29;20220;-41
2023/12/21 02:54:42;;;;;;;0.00;0.00;;;12.20;81.10;;;;;;4798461;29;20329;-42
2023/12/21 02:57:11;;;;;;;0.00;0.00;;;12.20;81.10;;;;;;4801204;29;20864;-41
2023/12/21 02:59:45;;;;;;;0.00;0.00;;;12.20;81.10;;;;;;4799213;29;20229;-42
2023/12/21 03:02:14;;;;;;;0.00;0.00;;;12.20;81.20;;;;;;4801046;29;20270;-45
2023/12/21 03:04:44;;;;;;;0.00;0.00;;;12.20;81.10;;;;;;4795258;29;20228;-43
2023/12/21 03:07:14;;;;;;;0.00;0.00;;;12.20;81.10;;;;;;4784412;29;20292;-41
2023/12/21 03:09:45;;;;;;;0.00;0.00;;;12.20;81.20;;;;;;4784615;29;20229;-37
2023/12/21 03:12:13;;;;;;;0.00;0.00;;;12.20;81.10;;;;;;4782718;30;20214;-43
2023/12/21 03:14:40;;;;;;;0.00;0.00;;;12.30;81.20;;;;;;4788641;29;20229;-44
2023/12/21 03:17:08;;;;;;;0.00;0.00;;;12.20;81.90;;;;;;4791433;29;20220;-41
2023/12/21 03:19:41;;;;;;;0.00;0.00;;;12.30;81.20;;;;;;4783989;29;20599;-43
2023/12/21 03:22:11;;;;;;;0.00;0.00;;;12.20;81.90;;;;;;4782857;30;20205;-43
2023/12/21 03:24:40;;;;;;;0.00;0.00;;;12.30;81.20;;;;;;4798259;29;20222;-40
2023/12/21 03:27:13;;;;;;;0.00;0.00;;;12.30;81.20;;;;;;4790999;29;21004;-43
2023/12/21 03:29:44;;;;;;;0.00;0.00;;;12.20;81.10;;;;;;4782031;30;20205;-42
2023/12/21 03:32:13;;;;;;;0.00;0.00;;;12.20;81.20;;;;;;4781996;30;20220;-44
2023/12/21 03:34:41;;;;;;;0.00;0.00;;;12.20;81.20;;;;;;4779961;29;20720;-40
2023/12/21 03:37:13;;;;;;;0.00;0.00;;;12.20;81.20;;;;;;4779978;30;20256;-42
2023/12/21 03:39:42;;;;;;;0.00;0.00;;;12.20;81.10;;;;;;4781478;29;20237;-37
2023/12/21 03:42:09;;;;;;;0.00;0.00;;;12.20;81.10;;;;;;4781659;29;20228;-43
2023/12/21 03:44:39;;;;;;;0.00;0.00;;;12.20;81.10;;;;;;4779848;30;20276;-38
2023/12/21 03:47:08;;;;;;;0.00;0.00;;;12.30;81.20;;;;;;4794410;29;20231;-43
2023/12/21 03:49:36;;;;;;;0.00;0.00;;;12.30;81.10;;;;;;4799585;29;20376;-38
2023/12/21 03:52:03;;;;;;;0.00;0.00;;;12.20;80.90;;;;;;4798120;29;20692;-42
2023/12/21 03:54:30;;;;;;;0.00;0.00;;;12.30;81.00;;;;;;4799594;29;20304;-42
2023/12/21 03:57:01;;;;;;;0.00;0.00;;;12.30;81.00;;;;;;4798703;29;20298;-42
2023/12/21 03:59:28;;;;;;;0.00;0.00;;;12.20;81.00;;;;;;4799318;29;20724;-42
2023/12/21 04:01:57;;;;;;;0.00;0.00;;;12.20;81.00;;;;;;4782327;29;20212;-43
2023/12/21 04:04:24;;;;;;;0.00;0.00;;;12.30;81.10;;;;;;4798951;29;20213;-37
2023/12/21 04:06:57;;;;;;;0.00;0.00;;;12.20;81.10;;;;;;4797803;29;20278;-42
2023/12/21 04:09:30;;;;;;;0.00;0.00;;;12.30;81.20;;;;;;4797818;29;20220;-38
2023/12/21 04:11:58;;;;;;;0.00;0.00;;;12.30;81.20;;;;;;4797713;29;20496;-39
2023/12/21 04:14:27;;;;;;;0.00;0.00;;;12.30;81.30;;;;;;4798888;29;20221;-36
2023/12/21 04:16:57;;;;;;;0.00;0.00;;;12.30;81.20;;;;;;4796276;29;20216;-39
2023/12/21 04:19:29;;;;;;;0.00;0.00;;;12.30;81.20;;;;;;4793667;29;20294;-43
2023/12/21 04:22:03;;;;;;;0.00;0.00;;;12.30;81.10;;;;;;4781019;29;20322;-40
2023/12/21 04:24:31;;;;;;;0.00;0.00;;;12.30;81.20;;;;;;4781096;30;20198;-43
2023/12/21 04:26:58;;;;;;;0.00;0.00;;;12.30;81.20;;;;;;4782844;29;20214;-41
2023/12/21 04:29:25;;;;;;;0.00;0.00;;;12.30;81.20;;;;;;4799032;29;20240;-43
2023/12/21 04:31:52;;;;;;;0.00;0.00;;;12.40;81.20;;;;;;4800076;29;20229;-43
2023/12/21 04:34:19;;;;;;;0.00;0.00;;;12.40;81.20;;;;;;4799271;29;20651;-40
2023/12/21 04:36:47;;;;;;;0.00;0.00;;;12.40;81.30;;;;;;4799426;29;20269;-43
2023/12/21 04:39:16;;;;;;;0.00;0.00;;;12.40;81.20;;;;;;4797191;29;20223;-42
2023/12/21 04:41:44;;;;;;;0.00;0.00;;;12.40;81.30;;;;;;4798846;29;20626;-42
2023/12/21 04:44:13;;;;;;;0.00;0.00;;;12.40;81.30;;;;;;4797331;29;20205;-40
2023/12/21 04:46:47;;;;;;;0.00;0.00;;;12.40;81.20;;;;;;4797000;29;20797;-35
2023/12/21 04:49:19;;;;;;;0.00;0.00;;;12.40;81.30;;;;;;4800255;29;20315;-43
2023/12/21 04:51:46;;;;;;;0.00;0.00;;;12.50;81.30;;;;;;4799293;29;20300;-43
2023/12/21 04:54:14;;;;;;;0.00;0.00;;;12.50;81.30;;;;;;4800604;29;20619;-43
2023/12/21 04:56:43;;;;;;;0.00;0.00;;;12.50;81.30;;;;;;4784691;29;20213;-43
2023/12/21 04:59:11;;;;;;;0.00;0.00;;;12.50;81.30;;;;;;4798954;29;20236;-41
2023/12/21 05:01:38;;;;;;;0.00;0.00;;;12.50;81.20;;;;;;4798910;29;20241;-42
2023/12/21 05:04:10;;;;;;;0.00;0.00;;;12.50;81.20;;;;;;4800220;29;20708;-40
2023/12/21 05:06:40;;;;;;;0.00;0.00;;;12.50;81.30;;;;;;4794528;29;20258;-42
2023/12/21 05:09:07;;;;;;;0.00;0.00;;;12.50;81.20;;;;;;4796162;29;20415;-41
2023/12/21 05:11:37;;;;;;;0.00;0.00;;;12.60;81.30;;;;;;4796574;29;20221;-40
2023/12/21 05:14:04;;;;;;;0.00;0.00;;;12.60;81.40;;;;;;4794593;29;20264;-41
2023/12/21 05:16:31;;;;;;;0.00;0.00;;;12.50;81.30;;;;;;4788576;29;20213;-43
2023/12/21 05:18:58;;;;;;;0.00;0.00;;;12.60;81.30;;;;;;4795116;29;20221;-43
2023/12/21 05:21:28;;;;;;;0.00;0.00;;;12.60;81.30;;;;;;4785485;29;20221;-37
2023/12/21 05:23:55;;;;;;;0.00;0.00;;;12.60;81.20;;;;;;4792113;29;20229;-42
2023/12/21 05:26:25;;;;;;;0.00;0.00;;;12.60;81.20;;;;;;4778588;29;20209;-41
2023/12/21 05:28:53;;;;;;;0.00;0.00;;;12.60;81.20;;;;;;4798024;29;20397;-39
2023/12/21 05:31:24;;;;;;;0.00;0.00;;;12.60;81.20;;;;;;4795974;29;20662;-42
2023/12/21 05:33:52;;;;;;;0.00;0.00;;;12.60;81.20;;;;;;4793931;29;20209;-39
2023/12/21 05:36:20;;;;;;;0.00;0.00;;;12.60;81.10;;;;;;4796998;29;20240;-43
2023/12/21 05:38:48;;;;;;;0.00;0.00;;;12.60;81.10;;;;;;4798492;29;20523;-44
2023/12/21 05:41:16;;;;;;;0.00;0.00;;;12.60;81.10;;;;;;4797713;29;20607;-40
2023/12/21 05:43:46;;;;;;;0.00;0.00;;;12.60;81.20;;;;;;4778585;29;20217;-42
2023/12/21 05:46:13;;;;;;;0.00;0.00;;;12.60;81.20;;;;;;4786224;29;20718;-43
2023/12/21 05:48:40;;;;;;;0.00;0.00;;;12.70;82.00;;;;;;4783746;29;20676;-40
2023/12/21 05:51:10;;;;;;;0.00;0.00;;;12.60;81.20;;;;;;4799121;29;20748;-42
2023/12/21 05:53:41;;;;;;;0.00;0.00;;;12.70;81.30;;;;;;4799497;29;20281;-40
2023/12/21 05:56:11;;;;;;;0.00;0.00;;;12.70;81.30;;;;;;4799778;29;20236;-38
2023/12/21 05:58:41;;;;;;;0.00;0.00;;;12.70;81.30;;;;;;4798390;29;20229;-43
2023/12/21 06:01:11;;;;;;;0.00;0.00;;;12.60;81.20;;;;;;4792924;29;20233;-41
2023/12/21 06:03:38;;;;;;;0.00;0.00;;;12.70;81.30;;;;;;4777993;29;20220;-40
2023/12/21 06:06:08;;;;;;;0.00;0.00;;;12.70;81.30;;;;;;4793037;29;20206;-41
2023/12/21 06:08:35;;;;;;;0.00;0.00;;;12.70;81.20;;;;;;4793948;29;20300;-42
2023/12/21 06:11:03;;;;;;;0.00;0.00;;;12.70;81.20;;;;;;4791648;29;20217;-42
2023/12/21 06:13:30;;;;;;;0.00;0.00;;;12.70;81.20;;;;;;4792533;29;20882;-42
2023/12/21 06:15:57;;;;;;;0.00;0.00;;;12.70;81.10;;;;;;4791025;29;20225;-42
2023/12/21 06:18:24;;;;;;;0.00;0.00;;;12.70;81.20;;;;;;4808137;29;20724;-42
2023/12/21 06:20:52;;;;;;;0.00;0.00;;;12.70;81.20;;;;;;4786236;29;20618;-42
2023/12/21 06:23:22;;;;;;;0.00;0.00;;;12.70;81.20;;;;;;4789362;29;20303;-39
2023/12/21 06:25:51;;;;;;;0.00;0.00;;;12.70;81.10;;;;;;4792761;29;20780;-43
2023/12/21 06:28:26;;;;;;;0.00;0.00;;;12.70;81.20;;;;;;4791473;29;20750;-43
2023/12/21 06:30:54;;;;;;;0.00;0.00;;;12.70;81.30;;;;;;4790553;29;20304;-40
2023/12/21 06:33:22;;;;;;;0.00;0.00;;;12.70;81.20;;;;;;4801538;29;20233;-41
2023/12/21 06:35:51;;;;;;;0.00;0.00;;;12.70;81.20;;;;;;4790538;29;20833;-42
2023/12/21 06:38:21;;;;;;;0.00;0.00;;;12.70;81.30;;;;;;4782038;29;20243;-41
2023/12/21 06:40:52;;;;;;;0.00;0.00;;;12.70;81.20;;;;;;4799307;29;20260;-42
2023/12/21 06:43:19;;;;;;;0.00;0.00;;;12.70;81.20;;;;;;4800686;29;20220;-41
2023/12/21 06:45:49;;;;;;;0.00;0.00;;;12.70;81.20;;;;;;4797158;29;20301;-38
2023/12/21 06:48:21;;;;;;;0.00;0.00;;;12.70;81.10;;;;;;4793432;29;20245;-39
2023/12/21 06:50:53;;;;;;;0.00;0.00;;;12.70;81.20;;;;;;4800237;29;20231;-42
2023/12/21 06:53:22;;;;;;;0.00;0.00;;;12.70;81.10;;;;;;4798569;29;20231;-39
2023/12/21 06:55:49;;;;;;;0.00;0.00;;;12.70;81.20;;;;;;4800246;29;20665;-42
2023/12/21 06:58:17;;;;;;;0.00;0.00;;;12.70;81.20;;;;;;4793541;29;20237;-41
2023/12/21 07:00:47;;;;;;;0.00;0.00;;;12.70;81.10;;;;;;4782032;29;20244;-39
2023/12/21 07:03:16;;;;;;;0.00;0.00;;;12.70;81.20;;;;;;4791282;29;20213;-42
2023/12/21 07:05:44;;;;;;;0.00;0.00;;;12.80;81.30;;;;;;4791504;29;20795;-42
2023/12/21 07:08:16;;;;;;;0.00;0.00;;;12.80;81.30;;;;;;4779767;29;20208;-40
2023/12/21 07:10:46;;;;;;;0.00;0.00;;;12.80;81.30;;;;;;4790432;29;20325;-41
2023/12/21 07:13:16;;;;;;;0.00;0.00;;;12.80;81.20;;;;;;4795697;29;20265;-43
2023/12/21 07:15:43;;;;;;;0.00;0.00;;;12.80;81.30;;;;;;4799163;29;20217;-38
2023/12/21 07:18:12;;;;;;;0.00;0.00;;;12.80;81.20;;;;;;4790906;29;20399;-42
2023/12/21 07:20:43;;;;;;;0.00;0.00;;;12.80;81.20;;;;;;4798287;29;20231;-40
2023/12/21 07:23:13;;;;;;;0.00;0.00;;;12.80;81.20;;;;;;4794879;29;20581;-45
2023/12/21 07:25:43;;;;;;;0.00;0.00;;;12.80;81.30;;;;;;4780013;29;20630;-41
2023/12/21 07:28:15;;;;;;;0.00;0.00;;;12.80;81.20;;;;;;4783438;29;20213;-41
2023/12/21 07:30:48;;;;;;;0.00;0.00;;;12.80;81.20;;;;;;4793592;29;20225;-42
2023/12/21 07:33:16;;;;;;;0.00;0.00;;;12.80;81.20;;;;;;4798346;29;20266;-40
2023/12/21 07:35:45;;;;;;;0.00;0.00;;;12.90;81.00;;;;;;4791635;29;20689;-41
2023/12/21 07:38:17;;;;;;;0.00;0.00;;;12.90;81.10;;;;;;4795878;29;20249;-40
2023/12/21 07:40:46;;;;;;;0.00;0.00;;;12.90;81.10;;;;;;4785541;29;20233;-43
2023/12/21 07:43:13;;;;;;;0.00;0.00;;;12.90;81.10;;;;;;4800128;29;20216;-42
2023/12/21 07:45:41;;;;;;;0.00;0.00;;;12.90;81.00;;;;;;4798023;29;21085;-42
2023/12/21 07:48:08;;;;;;;0.00;0.00;;;12.90;80.90;;;;;;4782268;29;20669;-45
2023/12/21 07:50:37;;;;;;;0.00;0.00;;;12.90;81.10;;;;;;4784041;29;20219;-42
2023/12/21 07:53:05;;;;;;;0.00;0.00;;;12.90;81.00;;;;;;4798144;29;20209;-37
2023/12/21 07:55:34;;;;;;;0.00;0.00;;;12.90;80.90;;;;;;4793819;29;21065;-45
2023/12/21 07:58:05;;;;;;;0.00;0.00;;;12.90;81.00;;;;;;4787856;29;20224;-44
2023/12/21 08:00:36;;;;;;;0.00;0.00;;;12.90;81.10;;;;;;4784618;29;20236;-44
2023/12/21 08:03:03;;;;;;;0.00;0.00;;;12.90;81.00;;;;;;4781192;29;20595;-44
2023/12/21 08:05:33;;;;;;;0.00;0.00;;;12.90;81.00;;;;;;4780247;29;20217;-44
2023/12/21 08:08:02;;;;;;;0.00;0.00;;;13.00;81.20;;;;;;4797255;29;20603;-44
2023/12/21 08:10:30;;;;;;;0.00;0.00;;;13.00;81.20;;;;;;4795649;29;20217;-45
2023/12/21 08:12:58;;;;;;;0.00;0.00;;;13.00;81.10;;;;;;4797447;29;20647;-43
2023/12/21 08:15:28;;;;;;;0.00;0.00;;;13.00;81.20;;;;;;4795271;29;20221;-44
2023/12/21 08:17:57;;;;;;;0.00;0.00;;;13.00;80.90;;;;;;4792624;29;20651;-42
2023/12/21 08:20:25;;;;;;;0.00;0.00;;;13.00;81.00;;;;;;4794590;29;20297;-44
2023/12/21 08:22:55;;;;;;;0.00;0.00;;;13.00;81.00;;;;;;4780959;29;20220;-40
2023/12/21 08:25:24;;;;;;;0.00;0.00;;;13.00;81.10;;;;;;4780953;29;20206;-41
2023/12/21 08:27:54;;;;;;;0.00;0.00;;;13.00;81.00;;;;;;4791179;29;20209;-43
2023/12/21 08:30:23;;;;;;;0.00;0.00;;;13.00;80.90;;;;;;4799326;29;20707;-41
2023/12/21 08:32:53;;;;;;;0.00;0.00;;;13.00;81.10;;;;;;4787005;29;20695;-40
2023/12/21 08:35:26;;;;;;;0.00;0.00;;;13.00;81.10;;;;;;4797642;29;20209;-43
2023/12/21 08:37:56;;;;;;;0.00;0.00;;;13.00;81.00;;;;;;4797503;29;20205;-42
2023/12/21 08:40:25;;;;;;;0.00;0.00;;;13.00;81.00;;;;;;4794721;29;20664;-21
2023/12/21 08:42:53;;;;;;;0.00;0.00;;;13.00;81.00;;;;;;4797152;29;20237;-21
2023/12/21 08:45:21;;;;;;;0.00;0.00;;;13.00;81.00;;;;;;4794822;29;20669;-21
2023/12/21 08:47:51;;;;;;;0.00;0.00;;;13.00;81.00;;;;;;4776477;29;20236;-21
2023/12/21 08:50:19;;;;;;;0.00;0.00;;;13.00;81.10;;;;;;4798463;29;20258;-21
2023/12/21 08:52:46;;;;;;;0.00;0.00;;;13.00;81.20;;;;;;4800752;29;20293;-20
2023/12/21 08:55:14;;;;;;;0.00;0.00;;;13.00;81.20;;;;;;4797158;29;20207;-20
2023/12/21 08:57:41;;;;;;;0.00;0.00;;;13.00;81.00;;;;;;4794964;29;20311;-21
2023/12/21 09:00:12;;;;;;;0.00;0.00;;;13.00;81.00;;;;;;4795116;29;20288;-20
2023/12/21 09:02:40;;;;;;;0.00;0.00;;;13.00;80.90;;;;;;4796094;29;20243;-20
2023/12/21 09:05:12;;;;;;;0.00;0.00;;;13.00;81.00;;;;;;4796259;29;20300;-20
2023/12/21 09:07:42;;;;;;;0.00;0.00;;;13.00;81.00;;;;;;4791700;29;20208;-20
2023/12/21 09:10:10;;;;;;;0.00;0.00;;;13.00;81.10;;;;;;4796510;29;20326;-21
2023/12/21 09:12:39;;;;;;;0.00;0.00;;;13.00;81.00;;;;;;4792528;29;20217;-21
2023/12/21 09:15:09;;;;;;;0.00;0.00;;;13.00;81.00;;;;;;4805262;29;20236;-21
2023/12/21 09:17:40;;;;;;;0.00;0.00;;;13.10;81.10;;;;;;4812037;29;20214;-21
2023/12/21 09:20:13;;;;;;;0.00;0.00;;;13.10;81.10;;;;;;4794172;29;21182;-21
2023/12/21 09:22:41;;;;;;;0.00;0.00;;;13.10;81.20;;;;;;4793007;29;20232;-22
2023/12/21 09:25:11;;;;;;;0.00;0.00;;;13.10;81.20;;;;;;4796855;29;20200;-21
2023/12/21 09:27:41;;;;;;;0.00;0.00;;;13.10;81.10;;;;;;4797112;29;20217;-21
2023/12/21 09:30:09;;;;;;;0.00;0.00;;;13.10;81.30;;;;;;4799540;29;20300;-20
2023/12/21 09:32:45;;;;;;;0.00;0.00;;;13.10;81.10;;;;;;4816675;29;20224;-22
2023/12/21 09:35:16;;;;;;;0.00;0.00;;;13.20;81.10;;;;;;4801574;29;20625;-21
2023/12/21 09:37:45;;;;;;;0.00;0.00;;;13.20;80.70;;;;;;4798167;29;20245;-21
2023/12/21 09:40:13;;;;;;;0.00;0.00;;;13.20;80.90;;;;;;4804584;29;20256;-21
2023/12/21 09:42:49;;;;;;;0.00;0.00;;;13.20;80.90;;;;;;4799375;29;20229;-21
2023/12/21 09:45:34;;;;;;;0.00;0.00;;;13.20;81.00;;;;;;4799337;29;20223;-21
2023/12/21 09:48:05;;;;;;;0.00;0.00;;;13.20;81.10;;;;;;4795745;29;20646;-20
2023/12/21 09:50:34;;;;;;;0.00;0.00;;;13.20;81.10;;;;;;4794969;29;20210;-21
2023/12/21 09:53:04;;;;;;;0.00;0.00;;;13.20;81.10;;;;;;4809161;29;20218;-21
2023/12/21 09:55:32;;;;;;;0.00;0.00;;;13.30;81.20;;;;;;4787485;29;20682;-21
2023/12/21 09:58:00;;;;;;;0.00;0.00;;;13.30;81.30;;;;;;4790085;29;20217;-21
2023/12/21 10:00:29;;;;;;;0.00;0.00;;;13.30;81.20;;;;;;4786051;29;20206;-22
2023/12/21 10:02:59;;;;;;;0.00;0.00;;;13.30;81.20;;;;;;4793304;29;20301;-21
2023/12/21 10:05:27;;;;;;;0.00;0.00;;;13.40;81.20;;;;;;4801922;29;20594;-21
2023/12/21 10:07:59;;;;;;;0.00;0.00;;;13.40;81.20;;;;;;4790091;29;20237;-21
2023/12/21 10:10:28;;;;;;;0.00;0.00;;;13.40;81.20;;;;;;4786355;29;20286;-22
2023/12/21 10:13:02;;;;;;;0.00;0.00;;;13.40;81.20;;;;;;4788836;29;20225;-22
2023/12/21 10:15:33;;;;;;;0.00;0.00;;;13.50;81.20;;;;;;4797811;29;20492;-22
2023/12/21 10:18:00;;;;;;;0.00;0.00;;;13.50;81.10;;;;;;4795375;29;20221;-22
2023/12/21 10:20:27;;;;;;;0.00;0.00;;;13.50;81.00;;;;;;4802842;29;20278;-21
2023/12/21 10:22:56;;;;;;;0.00;0.00;;;13.50;81.10;;;;;;4784393;29;20326;-21
2023/12/21 10:25:25;;;;;;;0.00;0.00;;;13.50;81.00;;;;;;4797307;29;20212;-21
2023/12/21 10:27:57;;;;;;;0.00;0.00;;;13.50;81.00;;;;;;4794671;29;20308;-21
2023/12/21 10:30:25;;;;;;;0.00;0.00;;;13.50;80.90;;;;;;4789199;29;20202;-22
2023/12/21 10:32:56;;;;;;;0.00;0.00;;;13.50;80.90;;;;;;4786757;29;20221;-21
2023/12/21 10:35:30;;;;;;;0.00;0.00;;;13.50;81.00;;;;;;4786992;29;20259;-21
2023/12/21 10:38:00;;;;;;;0.00;0.00;;;13.60;81.20;;;;;;4803080;29;20213;-21
2023/12/21 10:40:30;;;;;;;0.00;0.00;;;13.50;81.00;;;;;;4801508;29;20209;-22
2023/12/21 10:43:00;;;;;;;0.00;0.00;;;13.60;81.10;;;;;;4799230;29;20234;-22
2023/12/21 10:45:28;;;;;;;0.00;0.00;;;13.60;81.20;;;;;;4795429;29;20787;-21
2023/12/21 10:48:19;;;;;;;0.00;0.00;;;13.60;81.00;;;;;;4803138;29;20216;-21
2023/12/21 10:50:51;;;;;;;0.00;0.00;;;13.70;81.10;;;;;;4798421;29;20197;-22
2023/12/21 10:53:23;;;;;;;0.00;0.00;;;13.70;81.10;;;;;;4785543;29;20350;-22
2023/12/21 10:55:53;;;;;;;0.00;0.00;;;13.70;81.20;;;;;;4788603;29;20209;-22
2023/12/21 10:58:23;;;;;;;0.00;0.00;;;13.70;81.10;;;;;;4792317;29;20222;-22
2023/12/21 11:00:51;;;;;;;0.00;0.00;;;13.70;81.00;;;;;;4791757;29;20559;-22
2023/12/21 11:03:19;;;;;;;0.00;0.00;;;13.70;80.70;;;;;;4803175;29;20213;-21
2023/12/21 11:05:50;;;;;;;0.00;0.00;;;13.70;80.70;;;;;;4801467;29;20307;-21
2023/12/21 11:08:22;;;;;;;0.00;0.00;;;13.80;81.10;;;;;;4793689;29;20220;-22
2023/12/21 11:10:53;;;;;;;0.00;0.00;;;13.80;80.80;;;;;;4802768;29;20309;-22
2023/12/21 11:13:21;;;;;;;0.00;0.00;;;13.80;81.10;;;;;;4793033;29;20212;-22
2023/12/21 11:15:50;;;;;;;0.00;0.00;;;13.80;80.40;;;;;;4787016;29;20677;-22
2023/12/21 11:18:22;;;;;;;0.00;0.00;;;13.80;80.90;;;;;;4771874;30;20387;-21
2023/12/21 11:20:57;;;;;;;0.00;0.00;;;13.80;80.80;;;;;;4799851;29;20697;-22
2023/12/21 11:23:24;;;;;;;0.00;0.00;;;13.80;80.90;;;;;;4799620;29;20197;-22
2023/12/21 11:26:00;;;;;;;0.00;0.00;;;13.80;80.60;;;;;;4799272;29;20287;-21
2023/12/21 11:28:32;;;;;;;0.00;0.00;;;13.90;81.10;;;;;;4794145;29;20225;-21
2023/12/21 11:31:12;;;;;;;0.00;0.00;;;13.90;81.10;;;;;;4791840;29;20209;-21
2023/12/21 11:33:45;;;;;;;0.00;0.00;;;13.90;81.20;;;;;;4795539;29;20213;-21
2023/12/21 11:36:25;;;;;;;0.00;0.00;;;13.90;81.00;;;;;;4794500;29;20697;-21
2023/12/21 11:38:53;;;;;;;0.00;0.00;;;13.90;81.10;;;;;;4801776;29;20341;-21
2023/12/21 11:41:27;;;;;;;0.00;0.00;;;13.80;81.00;;;;;;4802061;29;20232;-21
2023/12/21 11:44:01;;;;;;;0.00;0.00;;;13.90;81.10;;;;;;4790765;29;20305;-22
2023/12/21 11:46:33;;;;;;;0.00;0.00;;;13.90;81.10;;;;;;4791633;29;20225;-21
2023/12/21 11:49:00;;;;;;;0.00;0.00;;;13.90;81.10;;;;;;4793361;29;20217;-21
2023/12/21 11:51:32;;;;;;;0.00;0.00;;;13.90;81.20;;;;;;4781469;29;20217;-22
2023/12/21 11:54:08;;;;;;;0.00;0.00;;;13.90;81.10;;;;;;4773335;29;20224;-22
2023/12/21 11:56:36;;;;;;;0.00;0.00;;;13.90;81.10;;;;;;4782657;30;20213;-22
2023/12/21 11:59:06;;;;;;;0.00;0.00;;;13.90;81.10;;;;;;4793984;29;20301;-22
2023/12/21 12:01:34;;;;;;;0.00;0.00;;;13.90;81.00;;;;;;4798945;29;20240;-22
2023/12/21 12:04:05;;;;;;;0.00;0.00;;;13.90;81.00;;;;;;4777492;29;20205;-20
2023/12/21 12:06:39;;;;;;;0.00;0.00;;;13.80;80.90;;;;;;5105002;27;20567;-24
2023/12/21 12:09:08;;;;;;;0.00;0.00;;;13.90;81.10;;;;;;5100168;28;20276;-24
2023/12/21 12:11:36;;;;;;;0.00;0.00;;;13.80;81.10;;;;;;5105268;28;20197;-24
2023/12/21 12:14:10;;;;;;;0.00;0.00;;;13.80;81.10;;;;;;5101394;28;20214;-24
2023/12/21 12:16:42;;;;;;;0.00;0.00;;;13.90;81.20;;;;;;5113494;27;20578;-23
2023/12/21 12:19:13;;;;;;;0.00;0.00;;;13.90;81.30;;;;;;5116895;27;20689;-24
2023/12/21 12:21:44;;;;;;;0.00;0.00;;;13.80;81.20;;;;;;5094975;28;20229;-23
2023/12/21 12:24:16;;;;;;;0.00;0.00;;;13.80;81.10;;;;;;5102960;28;20230;-23
2023/12/21 12:26:43;;;;;;;0.00;0.00;;;13.80;81.00;;;;;;5086515;28;20221;-24
2023/12/21 12:29:17;;;;;;;0.00;0.00;;;13.80;81.00;;;;;;5104172;28;20469;-23
2023/12/21 12:31:50;;;;;;;0.00;0.00;;;13.80;81.10;;;;;;5095066;28;20195;-25
2023/12/21 12:34:21;;;;;;;0.00;0.00;;;13.80;81.10;;;;;;5097375;28;20210;-23
2023/12/21 12:36:57;;;;;;;0.00;0.00;;;13.80;81.20;;;;;;5103050;28;20202;-23
2023/12/21 12:39:27;;;;;;;0.00;0.00;;;13.80;81.20;;;;;;5104219;28;20222;-23
2023/12/21 12:42:03;;;;;;;0.00;0.00;;;13.80;81.20;;;;;;5086877;28;20199;-23
2023/12/21 12:44:32;;;;;;;0.00;0.00;;;13.80;81.20;;;;;;5087314;28;20211;-23
2023/12/21 12:47:04;;;;;;;0.00;0.00;;;13.80;81.30;;;;;;5102994;28;20211;-24
2023/12/21 12:49:35;;;;;;;0.00;0.00;;;13.80;81.30;;;;;;5102743;28;20202;-23
2023/12/21 12:52:13;;;;;;;0.00;0.00;;;13.90;81.30;;;;;;5103287;28;20282;-23
2023/12/21 12:54:44;;;;;;;0.00;0.00;;;13.90;81.30;;;;;;5101579;28;20681;-23
2023/12/21 12:57:12;;;;;;;0.00;0.00;;;13.90;81.30;;;;;;5102440;28;20621;-23
2023/12/21 12:59:45;;;;;;;0.00;0.00;;;13.90;81.30;;;;;;5099513;28;20200;-23